Terminal Aerodrome Forecast
Issued by NWS

Home | Current Version | Previous Version | Text Only | Print | Product List | Glossary On
Versions: 1 2 3 4 5 6 7 8 9 10 11 12 13
000
FTUS45 KABQ 201700
TAFSAF
TAF
KSAF 201736Z 2018/2118 01010KT P6SM FEW070
     FM202000 14010KT P6SM VCSH SCT070 SCT150
     FM210300 11008KT P6SM BKN060
     FM210700 02005KT P6SM SCT050 SCT090=

USA.gov is the U.S. government's official web portal to all federal, state and local government web resources and services.